sensor_id;sensor_type;location;lat;lon;timestamp;P1;durP1;ratioP1;P2;durP2;ratioP2
2934;SDS011;2462;51.456;7.248;2023-10-31T00:01:52;1.70;;;1.53;;
2934;SDS011;2462;51.456;7.248;2023-10-31T00:04:19;1.83;;;1.40;;
2934;SDS011;2462;51.456;7.248;2023-10-31T00:06:45;1.97;;;1.77;;
2934;SDS011;2462;51.456;7.248;2023-10-31T00:09:11;2.37;;;1.43;;
2934;SDS011;2462;51.456;7.248;2023-10-31T00:11:37;1.50;;;1.10;;
2934;SDS011;2462;51.456;7.248;2023-10-31T00:14:03;2.23;;;1.37;;
2934;SDS011;2462;51.456;7.248;2023-10-31T00:16:29;1.70;;;1.33;;
2934;SDS011;2462;51.456;7.248;2023-10-31T00:18:55;3.43;;;1.80;;
2934;SDS011;2462;51.456;7.248;2023-10-31T00:21:21;1.10;;;0.90;;
2934;SDS011;2462;51.456;7.248;2023-10-31T00:23:47;1.43;;;1.10;;
2934;SDS011;2462;51.456;7.248;2023-10-31T00:26:13;1.80;;;1.60;;
2934;SDS011;2462;51.456;7.248;2023-10-31T00:28:39;1.40;;;1.30;;
2934;SDS011;2462;51.456;7.248;2023-10-31T00:31:05;1.60;;;1.50;;
2934;SDS011;2462;51.456;7.248;2023-10-31T00:33:36;1.73;;;1.30;;
2934;SDS011;2462;51.456;7.248;2023-10-31T00:36:02;2.13;;;1.40;;
2934;SDS011;2462;51.456;7.248;2023-10-31T00:38:28;1.93;;;1.70;;
2934;SDS011;2462;51.456;7.248;2023-10-31T00:40:54;1.40;;;1.30;;
2934;SDS011;2462;51.456;7.248;2023-10-31T00:43:20;1.90;;;1.50;;
2934;SDS011;2462;51.456;7.248;2023-10-31T00:45:46;1.60;;;1.40;;
2934;SDS011;2462;51.456;7.248;2023-10-31T00:48:12;2.17;;;1.53;;
2934;SDS011;2462;51.456;7.248;2023-10-31T00:50:38;1.63;;;1.20;;
2934;SDS011;2462;51.456;7.248;2023-10-31T00:53:04;1.50;;;1.40;;
2934;SDS011;2462;51.456;7.248;2023-10-31T00:55:30;2.57;;;1.50;;
2934;SDS011;2462;51.456;7.248;2023-10-31T00:57:56;1.60;;;1.50;;
2934;SDS011;2462;51.456;7.248;2023-10-31T01:00:22;1.93;;;1.20;;
2934;SDS011;2462;51.456;7.248;2023-10-31T01:02:48;1.33;;;1.13;;
2934;SDS011;2462;51.456;7.248;2023-10-31T01:05:14;1.13;;;1.03;;
2934;SDS011;2462;51.456;7.248;2023-10-31T01:07:40;1.83;;;1.60;;
2934;SDS011;2462;51.456;7.248;2023-10-31T01:10:06;1.10;;;1.00;;
2934;SDS011;2462;51.456;7.248;2023-10-31T01:12:32;1.30;;;1.10;;
2934;SDS011;2462;51.456;7.248;2023-10-31T01:14:58;1.40;;;1.30;;
2934;SDS011;2462;51.456;7.248;2023-10-31T01:17:24;1.43;;;1.20;;
2934;SDS011;2462;51.456;7.248;2023-10-31T01:19:50;1.40;;;1.30;;
2934;SDS011;2462;51.456;7.248;2023-10-31T01:22:15;1.50;;;1.40;;
2934;SDS011;2462;51.456;7.248;2023-10-31T01:24:41;1.47;;;1.17;;
2934;SDS011;2462;51.456;7.248;2023-10-31T01:27:07;1.33;;;1.23;;
2934;SDS011;2462;51.456;7.248;2023-10-31T01:29:33;1.70;;;1.23;;
2934;SDS011;2462;51.456;7.248;2023-10-31T01:31:59;2.43;;;1.40;;
2934;SDS011;2462;51.456;7.248;2023-10-31T01:34:25;1.63;;;1.53;;
2934;SDS011;2462;51.456;7.248;2023-10-31T01:36:51;1.30;;;1.10;;
2934;SDS011;2462;51.456;7.248;2023-10-31T01:39:17;1.10;;;1.00;;
2934;SDS011;2462;51.456;7.248;2023-10-31T01:41:43;1.40;;;1.30;;
2934;SDS011;2462;51.456;7.248;2023-10-31T01:44:09;2.20;;;1.13;;
2934;SDS011;2462;51.456;7.248;2023-10-31T01:46:36;1.40;;;1.23;;
2934;SDS011;2462;51.456;7.248;2023-10-31T01:49:02;1.30;;;1.10;;
2934;SDS011;2462;51.456;7.248;2023-10-31T01:51:28;1.53;;;1.30;;
2934;SDS011;2462;51.456;7.248;2023-10-31T01:53:55;1.57;;;1.13;;
2934;SDS011;2462;51.456;7.248;2023-10-31T01:56:21;1.60;;;1.07;;
2934;SDS011;2462;51.456;7.248;2023-10-31T01:58:48;2.13;;;1.47;;
2934;SDS011;2462;51.456;7.248;2023-10-31T02:01:14;1.10;;;1.00;;
2934;SDS011;2462;51.456;7.248;2023-10-31T02:03:40;1.60;;;1.23;;
2934;SDS011;2462;51.456;7.248;2023-10-31T02:06:06;1.30;;;1.20;;
2934;SDS011;2462;51.456;7.248;2023-10-31T02:08:32;1.80;;;1.43;;
2934;SDS011;2462;51.456;7.248;2023-10-31T02:10:58;1.40;;;1.30;;
2934;SDS011;2462;51.456;7.248;2023-10-31T02:13:24;1.33;;;1.23;;
2934;SDS011;2462;51.456;7.248;2023-10-31T02:15:50;1.40;;;1.30;;
2934;SDS011;2462;51.456;7.248;2023-10-31T02:18:16;1.50;;;1.40;;
2934;SDS011;2462;51.456;7.248;2023-10-31T02:20:42;1.20;;;1.10;;
2934;SDS011;2462;51.456;7.248;2023-10-31T02:23:08;1.33;;;1.10;;
2934;SDS011;2462;51.456;7.248;2023-10-31T02:25:34;1.20;;;1.10;;
2934;SDS011;2462;51.456;7.248;2023-10-31T02:28:00;1.77;;;1.23;;
2934;SDS011;2462;51.456;7.248;2023-10-31T02:30:26;1.73;;;1.33;;
2934;SDS011;2462;51.456;7.248;2023-10-31T02:32:52;1.47;;;1.07;;
2934;SDS011;2462;51.456;7.248;2023-10-31T02:35:19;1.37;;;1.27;;
2934;SDS011;2462;51.456;7.248;2023-10-31T02:37:48;1.87;;;1.30;;
2934;SDS011;2462;51.456;7.248;2023-10-31T02:40:14;2.30;;;1.33;;
2934;SDS011;2462;51.456;7.248;2023-10-31T02:42:40;1.33;;;1.20;;
2934;SDS011;2462;51.456;7.248;2023-10-31T02:45:06;1.30;;;1.20;;
2934;SDS011;2462;51.456;7.248;2023-10-31T02:47:33;1.20;;;1.10;;
2934;SDS011;2462;51.456;7.248;2023-10-31T02:49:59;1.77;;;1.47;;
2934;SDS011;2462;51.456;7.248;2023-10-31T02:52:25;2.37;;;1.10;;
2934;SDS011;2462;51.456;7.248;2023-10-31T02:54:51;1.50;;;1.40;;
2934;SDS011;2462;51.456;7.248;2023-10-31T02:57:17;1.30;;;1.20;;
2934;SDS011;2462;51.456;7.248;2023-10-31T02:59:43;2.93;;;1.50;;
2934;SDS011;2462;51.456;7.248;2023-10-31T03:02:09;1.50;;;1.20;;
2934;SDS011;2462;51.456;7.248;2023-10-31T03:04:36;1.20;;;1.10;;
2934;SDS011;2462;51.456;7.248;2023-10-31T03:07:02;1.27;;;1.10;;
2934;SDS011;2462;51.456;7.248;2023-10-31T03:09:28;4.17;;;1.90;;
2934;SDS011;2462;51.456;7.248;2023-10-31T03:11:55;1.10;;;1.00;;
2934;SDS011;2462;51.456;7.248;2023-10-31T03:14:21;1.43;;;1.33;;
2934;SDS011;2462;51.456;7.248;2023-10-31T03:16:47;1.63;;;1.40;;
2934;SDS011;2462;51.456;7.248;2023-10-31T03:19:13;1.90;;;1.50;;
2934;SDS011;2462;51.456;7.248;2023-10-31T03:21:39;2.33;;;1.73;;
2934;SDS011;2462;51.456;7.248;2023-10-31T03:24:05;1.10;;;1.00;;
2934;SDS011;2462;51.456;7.248;2023-10-31T03:26:31;1.33;;;1.13;;
2934;SDS011;2462;51.456;7.248;2023-10-31T03:28:57;1.40;;;1.30;;
2934;SDS011;2462;51.456;7.248;2023-10-31T03:31:23;1.27;;;1.10;;
2934;SDS011;2462;51.456;7.248;2023-10-31T03:33:49;2.20;;;1.20;;
2934;SDS011;2462;51.456;7.248;2023-10-31T03:36:16;1.30;;;1.20;;
2934;SDS011;2462;51.456;7.248;2023-10-31T03:38:42;1.33;;;1.23;;
2934;SDS011;2462;51.456;7.248;2023-10-31T03:41:08;2.10;;;1.40;;
2934;SDS011;2462;51.456;7.248;2023-10-31T03:43:34;1.40;;;1.30;;
2934;SDS011;2462;51.456;7.248;2023-10-31T03:46:00;1.40;;;1.30;;
2934;SDS011;2462;51.456;7.248;2023-10-31T03:48:26;1.47;;;1.37;;
2934;SDS011;2462;51.456;7.248;2023-10-31T03:50:52;1.40;;;1.30;;
2934;SDS011;2462;51.456;7.248;2023-10-31T03:53:18;1.63;;;1.23;;
2934;SDS011;2462;51.456;7.248;2023-10-31T03:55:44;1.30;;;1.10;;
2934;SDS011;2462;51.456;7.248;2023-10-31T03:58:10;1.80;;;1.10;;
2934;SDS011;2462;51.456;7.248;2023-10-31T04:00:36;1.50;;;1.23;;
2934;SDS011;2462;51.456;7.248;2023-10-31T04:03:02;1.40;;;1.30;;
2934;SDS011;2462;51.456;7.248;2023-10-31T04:05:28;1.70;;;1.50;;
2934;SDS011;2462;51.456;7.248;2023-10-31T04:07:54;1.70;;;1.30;;
2934;SDS011;2462;51.456;7.248;2023-10-31T04:10:20;1.50;;;1.40;;
2934;SDS011;2462;51.456;7.248;2023-10-31T04:12:46;1.57;;;1.47;;
2934;SDS011;2462;51.456;7.248;2023-10-31T04:15:12;1.70;;;1.50;;
2934;SDS011;2462;51.456;7.248;2023-10-31T04:17:38;5.97;;;1.47;;
2934;SDS011;2462;51.456;7.248;2023-10-31T04:20:04;1.60;;;1.50;;
2934;SDS011;2462;51.456;7.248;2023-10-31T04:22:30;1.83;;;1.60;;
2934;SDS011;2462;51.456;7.248;2023-10-31T04:24:56;1.60;;;1.50;;
2934;SDS011;2462;51.456;7.248;2023-10-31T04:27:22;1.40;;;1.30;;
2934;SDS011;2462;51.456;7.248;2023-10-31T04:29:48;1.80;;;1.70;;
2934;SDS011;2462;51.456;7.248;2023-10-31T04:32:14;1.80;;;1.70;;
2934;SDS011;2462;51.456;7.248;2023-10-31T04:34:40;1.77;;;1.43;;
2934;SDS011;2462;51.456;7.248;2023-10-31T04:37:06;2.70;;;1.23;;
2934;SDS011;2462;51.456;7.248;2023-10-31T04:39:32;1.67;;;1.47;;
2934;SDS011;2462;51.456;7.248;2023-10-31T04:41:58;2.13;;;1.50;;
2934;SDS011;2462;51.456;7.248;2023-10-31T04:44:23;1.70;;;1.57;;
2934;SDS011;2462;51.456;7.248;2023-10-31T04:46:49;1.43;;;1.23;;
2934;SDS011;2462;51.456;7.248;2023-10-31T04:49:15;1.83;;;1.73;;
2934;SDS011;2462;51.456;7.248;2023-10-31T04:51:41;1.77;;;1.67;;
2934;SDS011;2462;51.456;7.248;2023-10-31T04:54:08;1.60;;;1.50;;
2934;SDS011;2462;51.456;7.248;2023-10-31T04:56:34;2.17;;;1.40;;
2934;SDS011;2462;51.456;7.248;2023-10-31T04:59:00;2.20;;;1.40;;
2934;SDS011;2462;51.456;7.248;2023-10-31T05:01:26;1.93;;;1.77;;
2934;SDS011;2462;51.456;7.248;2023-10-31T05:03:51;1.50;;;1.30;;
2934;SDS011;2462;51.456;7.248;2023-10-31T05:06:21;2.23;;;2.03;;
2934;SDS011;2462;51.456;7.248;2023-10-31T05:08:47;1.77;;;1.60;;
2934;SDS011;2462;51.456;7.248;2023-10-31T05:11:13;1.90;;;1.80;;
2934;SDS011;2462;51.456;7.248;2023-10-31T05:13:39;1.67;;;1.50;;
2934;SDS011;2462;51.456;7.248;2023-10-31T05:16:05;1.60;;;1.50;;
2934;SDS011;2462;51.456;7.248;2023-10-31T05:18:31;2.03;;;1.20;;
2934;SDS011;2462;51.456;7.248;2023-10-31T05:20:57;1.63;;;1.53;;
2934;SDS011;2462;51.456;7.248;2023-10-31T05:23:23;4.03;;;1.47;;
2934;SDS011;2462;51.456;7.248;2023-10-31T05:25:49;1.63;;;1.40;;
2934;SDS011;2462;51.456;7.248;2023-10-31T05:28:15;1.57;;;1.20;;
2934;SDS011;2462;51.456;7.248;2023-10-31T05:30:41;2.43;;;1.47;;
2934;SDS011;2462;51.456;7.248;2023-10-31T05:33:07;1.80;;;1.10;;
2934;SDS011;2462;51.456;7.248;2023-10-31T05:35:35;1.70;;;1.40;;
2934;SDS011;2462;51.456;7.248;2023-10-31T05:38:00;1.60;;;1.50;;
2934;SDS011;2462;51.456;7.248;2023-10-31T05:40:26;1.97;;;1.77;;
2934;SDS011;2462;51.456;7.248;2023-10-31T05:42:54;1.60;;;1.43;;
2934;SDS011;2462;51.456;7.248;2023-10-31T05:45:20;2.57;;;1.50;;
2934;SDS011;2462;51.456;7.248;2023-10-31T05:47:46;1.83;;;1.70;;
2934;SDS011;2462;51.456;7.248;2023-10-31T05:50:12;1.70;;;1.60;;
2934;SDS011;2462;51.456;7.248;2023-10-31T05:52:38;2.37;;;1.70;;
2934;SDS011;2462;51.456;7.248;2023-10-31T05:55:04;1.30;;;1.20;;
2934;SDS011;2462;51.456;7.248;2023-10-31T05:57:30;2.20;;;1.90;;
2934;SDS011;2462;51.456;7.248;2023-10-31T05:59:56;1.93;;;1.83;;
2934;SDS011;2462;51.456;7.248;2023-10-31T06:02:22;2.17;;;1.67;;
2934;SDS011;2462;51.456;7.248;2023-10-31T06:04:48;2.27;;;1.90;;
2934;SDS011;2462;51.456;7.248;2023-10-31T06:07:14;1.80;;;1.70;;
2934;SDS011;2462;51.456;7.248;2023-10-31T06:09:40;1.90;;;1.80;;
2934;SDS011;2462;51.456;7.248;2023-10-31T06:12:06;2.00;;;1.80;;
2934;SDS011;2462;51.456;7.248;2023-10-31T06:14:32;1.90;;;1.80;;
2934;SDS011;2462;51.456;7.248;2023-10-31T06:16:58;3.23;;;1.90;;
2934;SDS011;2462;51.456;7.248;2023-10-31T06:19:26;2.07;;;1.70;;
2934;SDS011;2462;51.456;7.248;2023-10-31T06:21:52;2.30;;;2.10;;
2934;SDS011;2462;51.456;7.248;2023-10-31T06:24:18;2.50;;;2.30;;
2934;SDS011;2462;51.456;7.248;2023-10-31T06:26:44;2.13;;;1.90;;
2934;SDS011;2462;51.456;7.248;2023-10-31T06:29:10;2.07;;;1.90;;
2934;SDS011;2462;51.456;7.248;2023-10-31T06:31:36;2.33;;;1.80;;
2934;SDS011;2462;51.456;7.248;2023-10-31T06:34:02;1.90;;;1.80;;
2934;SDS011;2462;51.456;7.248;2023-10-31T06:36:28;2.70;;;2.00;;
2934;SDS011;2462;51.456;7.248;2023-10-31T06:38:54;3.43;;;2.20;;
2934;SDS011;2462;51.456;7.248;2023-10-31T06:41:21;2.50;;;2.30;;
2934;SDS011;2462;51.456;7.248;2023-10-31T06:43:47;1.90;;;1.70;;
2934;SDS011;2462;51.456;7.248;2023-10-31T06:46:13;2.30;;;2.10;;
2934;SDS011;2462;51.456;7.248;2023-10-31T06:48:40;2.40;;;2.20;;
2934;SDS011;2462;51.456;7.248;2023-10-31T06:51:06;2.40;;;2.00;;
2934;SDS011;2462;51.456;7.248;2023-10-31T06:53:32;3.13;;;2.60;;
2934;SDS011;2462;51.456;7.248;2023-10-31T06:55:58;2.70;;;2.40;;
2934;SDS011;2462;51.456;7.248;2023-10-31T06:58:24;3.33;;;2.47;;
2934;SDS011;2462;51.456;7.248;2023-10-31T07:00:50;2.43;;;2.23;;
2934;SDS011;2462;51.456;7.248;2023-10-31T07:03:16;2.93;;;2.43;;
2934;SDS011;2462;51.456;7.248;2023-10-31T07:05:42;2.20;;;1.77;;
2934;SDS011;2462;51.456;7.248;2023-10-31T07:08:08;2.00;;;1.80;;
2934;SDS011;2462;51.456;7.248;2023-10-31T07:10:34;2.70;;;2.50;;
2934;SDS011;2462;51.456;7.248;2023-10-31T07:13:00;2.50;;;2.30;;
2934;SDS011;2462;51.456;7.248;2023-10-31T07:15:26;2.23;;;2.03;;
2934;SDS011;2462;51.456;7.248;2023-10-31T07:17:55;2.80;;;2.20;;
2934;SDS011;2462;51.456;7.248;2023-10-31T07:20:21;2.53;;;2.30;;
2934;SDS011;2462;51.456;7.248;2023-10-31T07:22:47;2.50;;;2.30;;
2934;SDS011;2462;51.456;7.248;2023-10-31T07:25:13;2.23;;;2.03;;
2934;SDS011;2462;51.456;7.248;2023-10-31T07:27:39;2.80;;;2.60;;
2934;SDS011;2462;51.456;7.248;2023-10-31T07:30:06;2.40;;;2.20;;
2934;SDS011;2462;51.456;7.248;2023-10-31T07:32:32;1.90;;;1.80;;
2934;SDS011;2462;51.456;7.248;2023-10-31T07:34:58;2.70;;;2.50;;
2934;SDS011;2462;51.456;7.248;2023-10-31T07:37:24;2.50;;;2.30;;
2934;SDS011;2462;51.456;7.248;2023-10-31T07:39:50;2.70;;;2.43;;
2934;SDS011;2462;51.456;7.248;2023-10-31T07:42:16;2.03;;;1.90;;
2934;SDS011;2462;51.456;7.248;2023-10-31T07:44:43;2.40;;;2.23;;
2934;SDS011;2462;51.456;7.248;2023-10-31T07:47:09;3.00;;;2.40;;
2934;SDS011;2462;51.456;7.248;2023-10-31T07:49:35;2.30;;;2.10;;
2934;SDS011;2462;51.456;7.248;2023-10-31T07:52:01;2.33;;;2.13;;
2934;SDS011;2462;51.456;7.248;2023-10-31T07:54:27;2.73;;;2.33;;
2934;SDS011;2462;51.456;7.248;2023-10-31T07:56:54;2.40;;;2.20;;
2934;SDS011;2462;51.456;7.248;2023-10-31T07:59:20;2.40;;;2.20;;
2934;SDS011;2462;51.456;7.248;2023-10-31T08:01:47;2.60;;;2.40;;
2934;SDS011;2462;51.456;7.248;2023-10-31T08:04:14;2.13;;;1.93;;
2934;SDS011;2462;51.456;7.248;2023-10-31T08:06:41;3.10;;;2.80;;
2934;SDS011;2462;51.456;7.248;2023-10-31T08:09:07;2.73;;;2.53;;
2934;SDS011;2462;51.456;7.248;2023-10-31T08:11:33;2.20;;;2.00;;
2934;SDS011;2462;51.456;7.248;2023-10-31T08:14:00;2.50;;;2.30;;
2934;SDS011;2462;51.456;7.248;2023-10-31T08:16:27;2.50;;;2.30;;
2934;SDS011;2462;51.456;7.248;2023-10-31T08:18:53;2.80;;;2.60;;
2934;SDS011;2462;51.456;7.248;2023-10-31T08:21:19;2.50;;;2.30;;
2934;SDS011;2462;51.456;7.248;2023-10-31T08:23:46;3.27;;;3.03;;
2934;SDS011;2462;51.456;7.248;2023-10-31T08:26:12;2.60;;;2.40;;
2934;SDS011;2462;51.456;7.248;2023-10-31T08:28:38;3.07;;;2.77;;
2934;SDS011;2462;51.456;7.248;2023-10-31T08:31:04;3.00;;;2.80;;
2934;SDS011;2462;51.456;7.248;2023-10-31T08:33:32;2.60;;;2.40;;
2934;SDS011;2462;51.456;7.248;2023-10-31T08:35:59;3.20;;;2.90;;
2934;SDS011;2462;51.456;7.248;2023-10-31T08:38:26;2.80;;;2.60;;
2934;SDS011;2462;51.456;7.248;2023-10-31T08:40:53;2.70;;;2.50;;
2934;SDS011;2462;51.456;7.248;2023-10-31T08:43:19;2.50;;;2.30;;
2934;SDS011;2462;51.456;7.248;2023-10-31T08:45:45;3.20;;;2.47;;
2934;SDS011;2462;51.456;7.248;2023-10-31T08:48:11;5.30;;;3.80;;
2934;SDS011;2462;51.456;7.248;2023-10-31T08:50:37;4.57;;;3.30;;
2934;SDS011;2462;51.456;7.248;2023-10-31T08:53:03;3.47;;;3.17;;
2934;SDS011;2462;51.456;7.248;2023-10-31T08:55:29;3.45;;;3.05;;
2934;SDS011;2462;51.456;7.248;2023-10-31T08:57:56;4.30;;;3.00;;
2934;SDS011;2462;51.456;7.248;2023-10-31T09:00:21;3.00;;;2.67;;
2934;SDS011;2462;51.456;7.248;2023-10-31T09:02:48;2.90;;;2.60;;
2934;SDS011;2462;51.456;7.248;2023-10-31T09:05:14;3.33;;;3.13;;
2934;SDS011;2462;51.456;7.248;2023-10-31T09:07:40;3.47;;;2.97;;
2934;SDS011;2462;51.456;7.248;2023-10-31T09:10:06;3.37;;;2.70;;
2934;SDS011;2462;51.456;7.248;2023-10-31T09:12:32;3.27;;;2.93;;
2934;SDS011;2462;51.456;7.248;2023-10-31T09:14:58;2.90;;;2.70;;
2934;SDS011;2462;51.456;7.248;2023-10-31T09:17:24;3.20;;;3.00;;
2934;SDS011;2462;51.456;7.248;2023-10-31T09:19:50;3.67;;;3.37;;
2934;SDS011;2462;51.456;7.248;2023-10-31T09:22:16;3.23;;;3.03;;
2934;SDS011;2462;51.456;7.248;2023-10-31T09:24:42;3.43;;;3.13;;
2934;SDS011;2462;51.456;7.248;2023-10-31T09:27:08;3.03;;;2.83;;
2934;SDS011;2462;51.456;7.248;2023-10-31T09:29:35;3.80;;;2.90;;
2934;SDS011;2462;51.456;7.248;2023-10-31T09:32:01;3.40;;;3.20;;
2934;SDS011;2462;51.456;7.248;2023-10-31T09:34:27;3.27;;;3.07;;
2934;SDS011;2462;51.456;7.248;2023-10-31T09:36:53;3.37;;;3.13;;
2934;SDS011;2462;51.456;7.248;2023-10-31T09:39:20;2.90;;;2.70;;
2934;SDS011;2462;51.456;7.248;2023-10-31T09:41:47;3.40;;;3.10;;
2934;SDS011;2462;51.456;7.248;2023-10-31T09:44:13;3.17;;;2.97;;
2934;SDS011;2462;51.456;7.248;2023-10-31T09:46:39;3.10;;;2.90;;
2934;SDS011;2462;51.456;7.248;2023-10-31T09:49:06;3.40;;;3.10;;
2934;SDS011;2462;51.456;7.248;2023-10-31T09:51:33;3.10;;;2.90;;
2934;SDS011;2462;51.456;7.248;2023-10-31T09:54:01;2.70;;;2.50;;
2934;SDS011;2462;51.456;7.248;2023-10-31T09:56:28;2.77;;;2.57;;
2934;SDS011;2462;51.456;7.248;2023-10-31T09:59:03;4.47;;;4.03;;
2934;SDS011;2462;51.456;7.248;2023-10-31T10:01:30;3.60;;;2.80;;
2934;SDS011;2462;51.456;7.248;2023-10-31T10:03:56;2.67;;;2.53;;
2934;SDS011;2462;51.456;7.248;2023-10-31T10:06:24;3.43;;;3.17;;
2934;SDS011;2462;51.456;7.248;2023-10-31T10:08:50;3.10;;;2.90;;
2934;SDS011;2462;51.456;7.248;2023-10-31T10:11:16;4.30;;;3.03;;
2934;SDS011;2462;51.456;7.248;2023-10-31T10:13:42;2.80;;;2.60;;
2934;SDS011;2462;51.456;7.248;2023-10-31T10:16:09;5.20;;;2.90;;
2934;SDS011;2462;51.456;7.248;2023-10-31T10:18:35;3.00;;;2.80;;
2934;SDS011;2462;51.456;7.248;2023-10-31T10:21:06;3.67;;;2.67;;
2934;SDS011;2462;51.456;7.248;2023-10-31T10:23:32;6.00;;;2.50;;
2934;SDS011;2462;51.456;7.248;2023-10-31T10:25:59;2.50;;;2.30;;
2934;SDS011;2462;51.456;7.248;2023-10-31T10:28:25;3.40;;;2.83;;
2934;SDS011;2462;51.456;7.248;2023-10-31T10:30:52;3.00;;;2.80;;
2934;SDS011;2462;51.456;7.248;2023-10-31T10:33:19;3.30;;;3.00;;
2934;SDS011;2462;51.456;7.248;2023-10-31T10:35:45;3.00;;;2.70;;
2934;SDS011;2462;51.456;7.248;2023-10-31T10:38:13;3.33;;;2.60;;
2934;SDS011;2462;51.456;7.248;2023-10-31T10:40:40;4.13;;;3.40;;
2934;SDS011;2462;51.456;7.248;2023-10-31T10:43:12;5.80;;;5.20;;
2934;SDS011;2462;51.456;7.248;2023-10-31T10:45:41;5.10;;;3.90;;
2934;SDS011;2462;51.456;7.248;2023-10-31T10:48:12;3.60;;;3.30;;
2934;SDS011;2462;51.456;7.248;2023-10-31T10:50:41;4.00;;;3.40;;
2934;SDS011;2462;51.456;7.248;2023-10-31T10:53:09;4.73;;;3.20;;
2934;SDS011;2462;51.456;7.248;2023-10-31T10:55:39;4.73;;;3.20;;
2934;SDS011;2462;51.456;7.248;2023-10-31T10:58:05;3.77;;;3.37;;
2934;SDS011;2462;51.456;7.248;2023-10-31T11:00:34;4.27;;;3.90;;
2934;SDS011;2462;51.456;7.248;2023-10-31T11:03:00;3.83;;;3.53;;
2934;SDS011;2462;51.456;7.248;2023-10-31T11:05:27;3.40;;;3.10;;
2934;SDS011;2462;51.456;7.248;2023-10-31T11:07:53;6.80;;;2.70;;
2934;SDS011;2462;51.456;7.248;2023-10-31T11:10:22;3.60;;;3.10;;
2934;SDS011;2462;51.456;7.248;2023-10-31T11:12:48;6.57;;;3.30;;
2934;SDS011;2462;51.456;7.248;2023-10-31T11:15:16;3.30;;;3.00;;
2934;SDS011;2462;51.456;7.248;2023-10-31T11:17:43;3.27;;;3.03;;
2934;SDS011;2462;51.456;7.248;2023-10-31T11:20:12;3.13;;;2.87;;
2934;SDS011;2462;51.456;7.248;2023-10-31T11:22:44;3.80;;;2.97;;
2934;SDS011;2462;51.456;7.248;2023-10-31T11:25:13;3.87;;;2.73;;
2934;SDS011;2462;51.456;7.248;2023-10-31T11:27:39;2.70;;;2.37;;
2934;SDS011;2462;51.456;7.248;2023-10-31T11:30:07;3.10;;;2.90;;
2934;SDS011;2462;51.456;7.248;2023-10-31T11:32:34;3.20;;;2.90;;
2934;SDS011;2462;51.456;7.248;2023-10-31T11:35:00;4.63;;;3.20;;
2934;SDS011;2462;51.456;7.248;2023-10-31T11:37:27;2.67;;;2.40;;
2934;SDS011;2462;51.456;7.248;2023-10-31T11:40:14;3.43;;;3.13;;
2934;SDS011;2462;51.456;7.248;2023-10-31T11:42:41;2.97;;;2.70;;
2934;SDS011;2462;51.456;7.248;2023-10-31T11:45:07;3.50;;;3.20;;
2934;SDS011;2462;51.456;7.248;2023-10-31T11:47:49;2.93;;;2.73;;
2934;SDS011;2462;51.456;7.248;2023-10-31T11:50:16;2.73;;;2.53;;
2934;SDS011;2462;51.456;7.248;2023-10-31T11:52:42;4.10;;;2.77;;
2934;SDS011;2462;51.456;7.248;2023-10-31T11:55:09;2.70;;;2.50;;
2934;SDS011;2462;51.456;7.248;2023-10-31T11:57:40;3.30;;;3.00;;
2934;SDS011;2462;51.456;7.248;2023-10-31T12:00:06;3.13;;;2.70;;
2934;SDS011;2462;51.456;7.248;2023-10-31T12:02:32;2.73;;;2.53;;
2934;SDS011;2462;51.456;7.248;2023-10-31T12:05:08;2.73;;;2.53;;
2934;SDS011;2462;51.456;7.248;2023-10-31T12:07:46;3.03;;;2.50;;
2934;SDS011;2462;51.456;7.248;2023-10-31T12:10:12;2.83;;;2.53;;
2934;SDS011;2462;51.456;7.248;2023-10-31T12:12:39;2.63;;;2.43;;
2934;SDS011;2462;51.456;7.248;2023-10-31T12:15:07;2.37;;;2.17;;
2934;SDS011;2462;51.456;7.248;2023-10-31T12:17:34;3.13;;;2.87;;
2934;SDS011;2462;51.456;7.248;2023-10-31T12:20:06;2.90;;;2.57;;
2934;SDS011;2462;51.456;7.248;2023-10-31T12:22:33;2.53;;;2.33;;
2934;SDS011;2462;51.456;7.248;2023-10-31T12:25:06;3.70;;;2.40;;
2934;SDS011;2462;51.456;7.248;2023-10-31T12:27:48;2.77;;;2.00;;
2934;SDS011;2462;51.456;7.248;2023-10-31T12:30:16;2.40;;;2.20;;
2934;SDS011;2462;51.456;7.248;2023-10-31T12:32:42;2.97;;;2.70;;
2934;SDS011;2462;51.456;7.248;2023-10-31T12:35:12;2.57;;;2.30;;
2934;SDS011;2462;51.456;7.248;2023-10-31T12:37:43;4.13;;;2.70;;
2934;SDS011;2462;51.456;7.248;2023-10-31T12:40:09;3.60;;;2.20;;
2934;SDS011;2462;51.456;7.248;2023-10-31T12:42:35;2.60;;;2.10;;
2934;SDS011;2462;51.456;7.248;2023-10-31T12:45:02;2.40;;;2.20;;
2934;SDS011;2462;51.456;7.248;2023-10-31T12:47:30;2.47;;;2.00;;
2934;SDS011;2462;51.456;7.248;2023-10-31T12:52:45;3.47;;;2.13;;
2934;SDS011;2462;51.456;7.248;2023-10-31T12:55:14;2.87;;;2.03;;
2934;SDS011;2462;51.456;7.248;2023-10-31T12:57:40;2.17;;;2.00;;
2934;SDS011;2462;51.456;7.248;2023-10-31T13:00:07;2.80;;;2.20;;
2934;SDS011;2462;51.456;7.248;2023-10-31T13:02:35;3.97;;;2.30;;
2934;SDS011;2462;51.456;7.248;2023-10-31T13:05:14;2.47;;;2.27;;
2934;SDS011;2462;51.456;7.248;2023-10-31T13:07:47;3.20;;;2.40;;
2934;SDS011;2462;51.456;7.248;2023-10-31T13:10:13;2.07;;;1.87;;
2934;SDS011;2462;51.456;7.248;2023-10-31T13:12:44;4.10;;;1.90;;
2934;SDS011;2462;51.456;7.248;2023-10-31T13:15:11;2.07;;;1.90;;
2934;SDS011;2462;51.456;7.248;2023-10-31T13:17:39;3.27;;;1.93;;
2934;SDS011;2462;51.456;7.248;2023-10-31T13:20:09;9.20;;;6.87;;
2934;SDS011;2462;51.456;7.248;2023-10-31T13:22:36;6.70;;;2.73;;
2934;SDS011;2462;51.456;7.248;2023-10-31T13:25:03;2.50;;;1.83;;
2934;SDS011;2462;51.456;7.248;2023-10-31T13:27:33;4.30;;;2.80;;
2934;SDS011;2462;51.456;7.248;2023-10-31T13:30:00;2.70;;;2.50;;
2934;SDS011;2462;51.456;7.248;2023-10-31T13:32:26;2.50;;;2.30;;
2934;SDS011;2462;51.456;7.248;2023-10-31T13:34:52;3.50;;;2.83;;
2934;SDS011;2462;51.456;7.248;2023-10-31T13:37:18;2.63;;;2.43;;
2934;SDS011;2462;51.456;7.248;2023-10-31T13:39:46;6.23;;;2.60;;
2934;SDS011;2462;51.456;7.248;2023-10-31T13:42:12;3.67;;;2.43;;
2934;SDS011;2462;51.456;7.248;2023-10-31T13:44:39;3.03;;;2.63;;
2934;SDS011;2462;51.456;7.248;2023-10-31T13:47:05;2.53;;;2.30;;
2934;SDS011;2462;51.456;7.248;2023-10-31T13:49:31;4.77;;;2.23;;
2934;SDS011;2462;51.456;7.248;2023-10-31T13:51:57;3.50;;;2.43;;
2934;SDS011;2462;51.456;7.248;2023-10-31T13:54:24;3.23;;;1.90;;
2934;SDS011;2462;51.456;7.248;2023-10-31T13:56:51;5.60;;;2.30;;
2934;SDS011;2462;51.456;7.248;2023-10-31T13:59:18;2.50;;;2.30;;
2934;SDS011;2462;51.456;7.248;2023-10-31T14:01:44;1.90;;;1.80;;
2934;SDS011;2462;51.456;7.248;2023-10-31T14:04:13;2.90;;;1.93;;
2934;SDS011;2462;51.456;7.248;2023-10-31T14:06:40;2.53;;;2.33;;
2934;SDS011;2462;51.456;7.248;2023-10-31T14:09:06;3.60;;;2.37;;
2934;SDS011;2462;51.456;7.248;2023-10-31T14:11:33;2.97;;;2.07;;
2934;SDS011;2462;51.456;7.248;2023-10-31T14:14:00;2.70;;;2.30;;
2934;SDS011;2462;51.456;7.248;2023-10-31T14:16:32;2.60;;;2.40;;
2934;SDS011;2462;51.456;7.248;2023-10-31T14:18:58;2.60;;;1.93;;
2934;SDS011;2462;51.456;7.248;2023-10-31T14:21:24;2.17;;;1.90;;
2934;SDS011;2462;51.456;7.248;2023-10-31T14:23:51;3.57;;;2.30;;
2934;SDS011;2462;51.456;7.248;2023-10-31T14:26:20;1.87;;;1.77;;
2934;SDS011;2462;51.456;7.248;2023-10-31T14:28:46;2.10;;;1.93;;
2934;SDS011;2462;51.456;7.248;2023-10-31T14:31:13;2.40;;;2.20;;
2934;SDS011;2462;51.456;7.248;2023-10-31T14:33:39;2.40;;;2.20;;
2934;SDS011;2462;51.456;7.248;2023-10-31T14:36:05;4.17;;;2.30;;
2934;SDS011;2462;51.456;7.248;2023-10-31T14:38:31;2.50;;;2.30;;
2934;SDS011;2462;51.456;7.248;2023-10-31T14:40:58;2.00;;;1.90;;
2934;SDS011;2462;51.456;7.248;2023-10-31T14:43:24;3.60;;;1.90;;
2934;SDS011;2462;51.456;7.248;2023-10-31T14:45:50;2.03;;;1.73;;
2934;SDS011;2462;51.456;7.248;2023-10-31T14:48:16;2.47;;;2.27;;
2934;SDS011;2462;51.456;7.248;2023-10-31T14:50:43;2.30;;;2.10;;
2934;SDS011;2462;51.456;7.248;2023-10-31T14:53:09;1.90;;;1.70;;
2934;SDS011;2462;51.456;7.248;2023-10-31T14:55:36;5.47;;;2.07;;
2934;SDS011;2462;51.456;7.248;2023-10-31T14:58:02;2.10;;;2.00;;
2934;SDS011;2462;51.456;7.248;2023-10-31T15:00:28;1.90;;;1.80;;
2934;SDS011;2462;51.456;7.248;2023-10-31T15:02:55;1.80;;;1.70;;
2934;SDS011;2462;51.456;7.248;2023-10-31T15:05:21;2.37;;;1.80;;
2934;SDS011;2462;51.456;7.248;2023-10-31T15:07:48;2.40;;;2.20;;
2934;SDS011;2462;51.456;7.248;2023-10-31T15:10:14;2.30;;;1.70;;
2934;SDS011;2462;51.456;7.248;2023-10-31T15:12:40;2.20;;;1.90;;
2934;SDS011;2462;51.456;7.248;2023-10-31T15:15:07;2.07;;;1.83;;